Allegan, Michigan
Current Conditions -  °F | °C
As of 2:53 PM on Sunday 23 Nov 2014 (Local Time) from KBIV Reporting Station
Overcast Overcast  
Wind Chill: 52°   Ceiling: 1800
Heat Index: 52°   Visibility: 10mi
Dew Point: 47°   Wind: 14mph
Humidity: 83%   Direction: 150°SSE
Pressure: 29.61"   Gusts: NA
Location:  42.53°N, 85.86°W
Report Text: KBIV 231953Z AUTO 15012KT 10SM OVC018 11/08 A2961 RMK AO2 RAB40E53 SLP010 P0000 T01110083
Loading
Personal Weather Stations






























Interactive Weather Map New forecast layout! Learn more

10-Day Weather Forecast

Advertisements
Track Severe Weather on mobile